KDKK

Details ICAO KDKK (DKK)
Name CHAUTAUQUA CO DUNKIRK
Region United States
Timezone America/New_York (UTC-5.0)
Plans Departing 6
Arriving 2
Stats Elevation 693 ft / 211 m (AMSL)
Location 42.493960° -79.271178°
Runways 2
Magnetic Variation 10.249° W
Sunrise 2017-12-15 12:41:18 UTC / 2017-12-15 07:41:18 Local
Sunset 2017-12-15 21:46:10 UTC / 2017-12-15 16:46:10 Local
Advertisement - Login to hide

Runways

ID Width Length Bearing (true) Bearing (mag) Surface Threshold Offset Overrun Length
06 100 ft / 30 m 5,003 ft / 1,525 m 50.00° 60.25° Asphalt 0 ft / 0 m 0 ft / 0 m
15 100 ft / 30 m 4,004 ft / 1,220 m 138.98° 149.23° Asphalt 0 ft / 0 m 0 ft / 0 m
24 100 ft / 30 m 5,003 ft / 1,525 m 230.01° 240.26° Asphalt 0 ft / 0 m 0 ft / 0 m
33 100 ft / 30 m 4,004 ft / 1,220 m 318.98° 329.23° Asphalt 0 ft / 0 m 0 ft / 0 m

Map

Weather


0- 5 10 15 20 25 30 35+ Temperature / ° C

Clouds and Precipitation
Forecast for 2017-12-15 06:00 UTC. Updated 2 hours ago

Ground ~20,000 ft ~40,000 ft Winds

METAR

KDKK 150553Z AUTO 19011KT 10SM BKN026 OVC031 M06/M09 A3002 RMK AO2 SLP176 T10561094 11044 21061 58004

TAF

Not found

Frequencies

Recorded 119.27 MHz ASOS
Approach 126.50 MHz BUFFALO APP/DEP
Unicom 123.07 MHz CTAF/UNICOM
Warning: Do not use this data for real-world aviation or navigation. No guarantee of current accuracy is given.